Time;durP1;ratioP1;P1;durP2;ratioP2;P2;SDS_P1;SDS_P2;PMS_P1;PMS_P2;Temp;Humidity;BMP_temperature;BMP_pressure;BME280_temperature;BME280_humidity;BME280_pressure;Samples;Min_cycle;Max_cycle;Signal;HPM_P1;HPM_P2
2021/06/02 00:02:11;;;;;;;;;;;21.70;57.40;;;;;;5035802;28;19940;-61
2021/06/02 00:04:41;;;;;;;;;;;21.70;57.40;;;;;;5054036;28;20411;-61
2021/06/02 00:07:09;;;;;;;;;;;21.70;57.30;;;;;;5045930;28;20532;-60
2021/06/02 00:09:35;;;;;;;;;;;21.70;57.30;;;;;;5040856;28;20010;-61
2021/06/02 00:12:02;;;;;;;;;;;21.70;57.30;;;;;;5048869;28;19951;-60
2021/06/02 00:14:28;;;;;;;;;;;21.70;57.30;;;;;;5037819;28;19912;-61
2021/06/02 00:16:53;;;;;;;;;;;21.70;57.20;;;;;;5028289;28;19928;-61
2021/06/02 00:19:19;;;;;;;;;;;21.70;57.20;;;;;;5039808;28;20011;-62
2021/06/02 00:21:44;;;;;;;;;;;21.70;57.30;;;;;;5037873;28;19928;-62
2021/06/02 00:24:10;;;;;;;;;;;21.70;57.20;;;;;;5041115;28;20417;-61
2021/06/02 00:26:35;;;;;;;;;;;21.70;57.20;;;;;;5019293;28;19943;-59
2021/06/02 00:29:04;;;;;;;;;;;21.70;57.20;;;;;;5037016;28;19925;-61
2021/06/02 00:31:30;;;;;;;;;;;21.70;57.20;;;;;;5003093;28;19959;-60
2021/06/02 00:33:56;;;;;;;;;;;21.70;57.20;;;;;;5024071;28;19963;-61
2021/06/02 00:36:23;;;;;;;;;;;21.70;57.20;;;;;;5007364;28;19925;-60
2021/06/02 00:38:48;;;;;;;;;;;21.70;57.20;;;;;;5019421;28;19921;-61
2021/06/02 00:41:14;;;;;;;;;;;21.70;57.20;;;;;;5018779;28;20674;-61
2021/06/02 00:43:39;;;;;;;;;;;21.70;57.10;;;;;;5041338;28;20439;-62
2021/06/02 00:46:05;;;;;;;;;;;21.70;57.10;;;;;;5018825;28;20115;-61
2021/06/02 00:48:30;;;;;;;;;;;21.70;57.10;;;;;;5018708;28;19996;-62
2021/06/02 00:50:56;;;;;;;;;;;21.70;57.10;;;;;;5020909;28;19943;-61
2021/06/02 00:53:21;;;;;;;;;;;21.70;57.10;;;;;;5037937;28;19921;-62
2021/06/02 00:55:46;;;;;;;;;;;21.70;57.10;;;;;;5042760;28;20340;-62
2021/06/02 00:58:29;;;;;;;;;;;21.70;57.00;;;;;;5025102;28;20023;-65
2021/06/02 01:00:54;;;;;;;;;;;21.70;57.00;;;;;;5041824;28;19917;-62
2021/06/02 01:03:21;;;;;;;;;;;21.70;57.00;;;;;;5024455;28;19974;-61
2021/06/02 01:05:46;;;;;;;;;;;21.70;57.00;;;;;;5027933;28;19948;-62
2021/06/02 01:08:12;;;;;;;;;;;21.70;57.00;;;;;;5023476;28;19923;-60
2021/06/02 01:10:37;;;;;;;;;;;21.70;57.00;;;;;;5024094;28;19970;-60
2021/06/02 01:13:02;;;;;;;;;;;21.70;57.00;;;;;;5032125;28;19917;-61
2021/06/02 01:15:28;;;;;;;;;;;21.70;57.00;;;;;;5021714;28;20314;-60
2021/06/02 01:17:53;;;;;;;;;;;21.70;57.00;;;;;;5043311;28;19948;-61
2021/06/02 01:20:19;;;;;;;;;;;21.70;57.00;;;;;;5023528;28;19923;-61
2021/06/02 01:22:45;;;;;;;;;;;21.70;56.90;;;;;;5022687;28;19925;-61
2021/06/02 01:25:11;;;;;;;;;;;21.70;57.00;;;;;;5022721;28;20439;-62
2021/06/02 01:27:36;;;;;;;;;;;21.70;56.90;;;;;;5049345;28;20147;-60
2021/06/02 01:30:03;;;;;;;;;;;21.70;56.90;;;;;;5039142;28;20062;-60
2021/06/02 01:32:47;;;;;;;;;;;21.70;56.90;;;;;;5040835;28;20298;-61
2021/06/02 01:35:31;;;;;;;;;;;21.70;56.90;;;;;;5037161;28;19923;-62
2021/06/02 01:38:03;;;;;;;;;;;21.70;56.80;;;;;;5041501;28;19921;-62
2021/06/02 01:40:47;;;;;;;;;;;21.70;56.80;;;;;;5034909;28;19952;-59
2021/06/02 01:43:31;;;;;;;;;;;21.70;56.80;;;;;;5032158;28;20397;-66
2021/06/02 01:46:12;;;;;;;;;;;21.70;56.80;;;;;;5049004;28;20093;-61
2021/06/02 01:48:56;;;;;;;;;;;21.70;56.80;;;;;;4996214;28;22147;-61
2021/06/02 01:51:26;;;;;;;;;;;21.70;56.80;;;;;;5043025;28;19924;-60
2021/06/02 01:54:10;;;;;;;;;;;21.70;56.80;;;;;;5025919;28;19931;-61
2021/06/02 01:56:51;;;;;;;;;;;21.70;56.80;;;;;;5040248;28;19917;-62
2021/06/02 01:59:16;;;;;;;;;;;21.70;56.80;;;;;;5044352;28;19981;-61
2021/06/02 02:01:42;;;;;;;;;;;21.60;56.70;;;;;;5040791;28;19921;-62
2021/06/02 02:04:29;;;;;;;;;;;21.70;56.70;;;;;;5025638;28;19939;-61
2021/06/02 02:06:54;;;;;;;;;;;21.70;56.70;;;;;;5041223;28;19921;-61
2021/06/02 02:09:29;;;;;;;;;;;21.70;56.70;;;;;;5039331;28;20675;-60
2021/06/02 02:12:13;;;;;;;;;;;21.70;56.60;;;;;;5044602;28;20066;-61
2021/06/02 02:14:50;;;;;;;;;;;21.70;56.70;;;;;;5038673;28;20397;-60
2021/06/02 02:17:34;;;;;;;;;;;21.70;56.70;;;;;;5021530;28;20173;-61
2021/06/02 02:20:00;;;;;;;;;;;21.70;56.60;;;;;;5047338;28;19970;-59
2021/06/02 02:22:26;;;;;;;;;;;21.70;56.70;;;;;;5043959;28;19921;-61
2021/06/02 02:25:04;;;;;;;;;;;21.70;56.60;;;;;;5039692;28;19932;-61
2021/06/02 02:27:48;;;;;;;;;;;21.70;56.60;;;;;;5020369;28;19967;-59
2021/06/02 02:30:22;;;;;;;;;;;21.70;56.60;;;;;;5041882;28;19930;-60
2021/06/02 02:32:52;;;;;;;;;;;21.70;56.60;;;;;;5021232;28;19924;-61
2021/06/02 02:35:29;;;;;;;;;;;21.70;56.60;;;;;;5039444;28;19943;-61
2021/06/02 02:38:13;;;;;;;;;;;21.70;56.60;;;;;;5022319;28;20014;-61
2021/06/02 02:40:43;;;;;;;;;;;21.70;56.60;;;;;;5047025;28;20403;-61
2021/06/02 02:43:12;;;;;;;;;;;21.60;56.50;;;;;;5041225;28;20660;-60
2021/06/02 02:45:42;;;;;;;;;;;21.70;56.60;;;;;;5021878;28;20342;-61
2021/06/02 02:48:23;;;;;;;;;;;21.70;56.60;;;;;;5024093;28;20345;-62
2021/06/02 02:50:48;;;;;;;;;;;21.70;56.60;;;;;;5025852;28;20055;-62
2021/06/02 02:53:23;;;;;;;;;;;21.70;56.50;;;;;;5048025;28;20008;-62
2021/06/02 02:55:56;;;;;;;;;;;21.70;57.20;;;;;;5029904;28;20107;-61
2021/06/02 02:58:30;;;;;;;;;;;21.60;56.50;;;;;;5040936;28;19993;-60
2021/06/02 03:01:07;;;;;;;;;;;21.60;56.50;;;;;;5014139;28;20377;-60
2021/06/02 03:03:51;;;;;;;;;;;21.60;56.50;;;;;;5027993;28;19956;-60
2021/06/02 03:06:19;;;;;;;;;;;21.60;56.50;;;;;;5034181;28;20294;-61
2021/06/02 03:09:00;;;;;;;;;;;21.60;56.40;;;;;;5048560;28;19931;-61
2021/06/02 03:11:34;;;;;;;;;;;21.60;56.50;;;;;;5017317;28;19970;-60
2021/06/02 03:14:01;;;;;;;;;;;21.60;56.40;;;;;;5027204;28;19948;-62
2021/06/02 03:16:30;;;;;;;;;;;21.60;56.50;;;;;;5045118;28;19916;-60
2021/06/02 03:18:58;;;;;;;;;;;21.60;56.40;;;;;;5029351;28;20386;-61
2021/06/02 03:21:34;;;;;;;;;;;21.60;56.50;;;;;;5023873;28;20015;-61
2021/06/02 03:24:16;;;;;;;;;;;21.60;56.40;;;;;;5024992;28;19925;-60
2021/06/02 03:26:51;;;;;;;;;;;21.60;56.50;;;;;;5026630;28;19921;-61
2021/06/02 03:29:23;;;;;;;;;;;21.60;56.40;;;;;;5026048;28;19929;-61
2021/06/02 03:31:52;;;;;;;;;;;21.60;56.40;;;;;;5007457;28;19944;-60
2021/06/02 03:34:21;;;;;;;;;;;21.60;56.40;;;;;;5042926;28;20093;-61
2021/06/02 03:36:58;;;;;;;;;;;21.60;56.40;;;;;;5004534;28;20313;-61
2021/06/02 03:39:42;;;;;;;;;;;21.60;56.40;;;;;;5020530;28;20398;-61
2021/06/02 03:42:23;;;;;;;;;;;21.60;56.40;;;;;;5038828;28;19969;-61
2021/06/02 03:45:04;;;;;;;;;;;21.60;56.40;;;;;;5034463;28;19946;-61
2021/06/02 03:47:38;;;;;;;;;;;21.60;56.40;;;;;;5037606;28;19967;-61
2021/06/02 03:50:05;;;;;;;;;;;21.60;56.30;;;;;;5022567;28;19986;-60
2021/06/02 03:52:48;;;;;;;;;;;21.60;56.30;;;;;;5040187;28;19996;-61
2021/06/02 03:55:32;;;;;;;;;;;21.60;56.30;;;;;;5028998;28;20613;-62
2021/06/02 03:57:59;;;;;;;;;;;21.60;56.30;;;;;;5035085;28;20055;-62
2021/06/02 04:00:33;;;;;;;;;;;21.60;56.30;;;;;;5026277;28;19963;-60
2021/06/02 04:03:01;;;;;;;;;;;21.60;56.30;;;;;;5038495;28;20506;-61
2021/06/02 04:05:45;;;;;;;;;;;21.60;56.20;;;;;;5038713;28;19932;-61
2021/06/02 04:08:10;;;;;;;;;;;21.60;56.20;;;;;;5037273;28;20166;-60
2021/06/02 04:10:41;;;;;;;;;;;21.60;56.20;;;;;;5041846;28;20016;-60
2021/06/02 04:13:26;;;;;;;;;;;21.60;56.20;;;;;;5037453;28;19920;-61
2021/06/02 04:15:51;;;;;;;;;;;21.60;56.20;;;;;;5036824;28;20228;-61
2021/06/02 04:18:18;;;;;;;;;;;21.60;56.20;;;;;;5019165;28;19928;-61
2021/06/02 04:20:44;;;;;;;;;;;21.60;56.20;;;;;;5019242;28;20005;-66
2021/06/02 04:23:09;;;;;;;;;;;21.60;56.20;;;;;;5022289;28;20351;-61
2021/06/02 04:25:35;;;;;;;;;;;21.60;56.80;;;;;;5018941;28;19929;-60
2021/06/02 04:28:00;;;;;;;;;;;21.60;56.10;;;;;;5023614;28;20390;-61
2021/06/02 04:30:26;;;;;;;;;;;21.60;56.10;;;;;;5023175;28;19928;-60
2021/06/02 04:32:51;;;;;;;;;;;21.60;56.10;;;;;;5019576;28;19927;-60
2021/06/02 04:35:17;;;;;;;;;;;21.60;56.10;;;;;;5027083;28;19924;-62
2021/06/02 04:37:43;;;;;;;;;;;21.60;56.10;;;;;;5038105;28;19960;-61
2021/06/02 04:40:09;;;;;;;;;;;21.70;56.20;;;;;;5039948;28;19951;-60
2021/06/02 04:42:35;;;;;;;;;;;21.70;56.30;;;;;;5024588;28;19925;-61
2021/06/02 04:45:01;;;;;;;;;;;21.70;56.40;;;;;;5019577;28;19928;-61
2021/06/02 04:47:26;;;;;;;;;;;21.70;56.50;;;;;;5024843;28;19921;-61
2021/06/02 04:50:10;;;;;;;;;;;21.70;56.60;;;;;;5018398;28;19925;-60
2021/06/02 04:52:45;;;;;;;;;;;21.70;56.90;;;;;;5039530;28;20374;-60
2021/06/02 04:55:29;;;;;;;;;;;21.70;57.10;;;;;;5037063;28;19916;-60
2021/06/02 04:58:14;;;;;;;;;;;21.70;57.30;;;;;;5038925;28;19921;-60
2021/06/02 05:00:39;;;;;;;;;;;21.70;57.50;;;;;;5044809;28;20324;-61
2021/06/02 05:03:16;;;;;;;;;;;21.60;57.50;;;;;;5038543;28;20173;-61
2021/06/02 05:06:01;;;;;;;;;;;21.60;57.60;;;;;;4999794;28;19916;-60
2021/06/02 05:08:45;;;;;;;;;;;21.60;57.60;;;;;;5038749;28;19917;-60
2021/06/02 05:11:29;;;;;;;;;;;21.60;57.50;;;;;;5038673;28;19917;-61
2021/06/02 05:14:18;;;;;;;;;;;21.60;57.50;;;;;;5038551;28;20281;-59
2021/06/02 05:17:02;;;;;;;;;;;21.60;57.40;;;;;;4978240;28;19917;-61
2021/06/02 05:22:17;;;;;;;;;;;21.60;57.40;;;;;;5038973;28;19917;-61
2021/06/02 05:24:48;;;;;;;;;;;21.60;57.40;;;;;;5036834;28;20305;-59
2021/06/02 05:27:33;;;;;;;;;;;21.60;57.30;;;;;;5038548;28;19916;-62
2021/06/02 05:30:04;;;;;;;;;;;21.60;57.40;;;;;;5048266;22;19932;-67
2021/06/02 05:32:32;;;;;;;;;;;21.60;57.70;;;;;;5019531;28;19917;-67
2021/06/02 05:35:02;;;;;;;;;;;21.60;57.80;;;;;;5036766;28;19944;-66
2021/06/02 05:37:46;;;;;;;;;;;21.60;58.00;;;;;;5029458;28;19925;-68
2021/06/02 05:40:24;;;;;;;;;;;21.60;58.10;;;;;;5014477;28;19917;-68
2021/06/02 05:43:08;;;;;;;;;;;21.60;58.20;;;;;;5013765;28;20000;-67
2021/06/02 05:46:09;;;;;;;;;;;21.60;58.30;;;;;;5004888;28;19918;-67
2021/06/02 05:48:44;;;;;;;;;;;21.60;58.50;;;;;;4991952;28;19974;-67
2021/06/02 05:51:28;;;;;;;;;;;21.60;58.50;;;;;;4982477;28;21595;-67
2021/06/02 05:53:57;;;;;;;;;;;21.60;58.50;;;;;;5008742;28;19913;-66
2021/06/02 05:56:43;;;;;;;;;;;21.60;58.50;;;;;;5028026;28;19948;-65
2021/06/02 05:59:09;;;;;;;;;;;21.60;58.50;;;;;;5028665;28;19925;-66
2021/06/02 06:02:12;;;;;;;;;;;21.70;58.50;;;;;;5014894;28;19929;-66
2021/06/02 06:04:57;;;;;;;;;;;21.60;58.40;;;;;;4955371;28;19926;-64
2021/06/02 06:07:37;;;;;;;;;;;21.70;58.40;;;;;;4951623;28;19922;-65
2021/06/02 06:10:05;;;;;;;;;;;21.60;58.20;;;;;;4992041;28;19917;-65
2021/06/02 06:12:31;;;;;;;;;;;21.60;58.00;;;;;;5010578;28;19920;-64
2021/06/02 06:15:05;;;;;;;;;;;21.70;58.00;;;;;;5007483;28;20299;-64
2021/06/02 06:17:34;;;;;;;;;;;21.70;57.80;;;;;;5022468;28;19921;-64
2021/06/02 06:20:18;;;;;;;;;;;21.60;57.70;;;;;;5013454;28;20000;-65
2021/06/02 06:22:46;;;;;;;;;;;21.60;57.60;;;;;;5016767;28;20563;-65
2021/06/02 06:25:16;;;;;;;;;;;21.70;57.60;;;;;;5012085;28;19924;-65
2021/06/02 06:27:44;;;;;;;;;;;21.60;57.30;;;;;;4986416;28;20228;-65
2021/06/02 06:30:14;;;;;;;;;;;21.60;57.30;;;;;;5009214;28;19961;-64
2021/06/02 06:32:40;;;;;;;;;;;21.60;57.10;;;;;;5011023;28;19913;-65
2021/06/02 06:35:05;;;;;;;;;;;21.60;57.00;;;;;;5038579;28;19914;-65
2021/06/02 06:37:33;;;;;;;;;;;21.60;57.00;;;;;;5019737;28;20362;-64
2021/06/02 06:40:08;;;;;;;;;;;21.60;56.90;;;;;;5007247;28;19967;-66
2021/06/02 06:42:36;;;;;;;;;;;21.60;56.80;;;;;;5024493;28;19996;-64
2021/06/02 06:45:05;;;;;;;;;;;21.60;56.80;;;;;;4999168;28;19913;-64
2021/06/02 06:47:31;;;;;;;;;;;21.60;56.80;;;;;;5019367;28;19917;-64
2021/06/02 06:49:57;;;;;;;;;;;21.60;56.80;;;;;;5010495;28;20493;-65
2021/06/02 06:52:23;;;;;;;;;;;21.60;56.80;;;;;;5028694;28;19924;-65
2021/06/02 06:54:49;;;;;;;;;;;21.60;56.80;;;;;;5010178;28;19913;-65
2021/06/02 06:57:14;;;;;;;;;;;21.60;56.80;;;;;;5009784;28;19916;-63
2021/06/02 06:59:40;;;;;;;;;;;21.60;56.70;;;;;;5016633;28;19919;-65
2021/06/02 07:02:05;;;;;;;;;;;21.60;56.70;;;;;;5013888;28;19952;-65
2021/06/02 07:04:31;;;;;;;;;;;21.60;56.60;;;;;;5004535;28;19914;-65
2021/06/02 07:06:57;;;;;;;;;;;21.60;56.60;;;;;;5010411;28;19914;-65
2021/06/02 07:09:22;;;;;;;;;;;21.60;56.60;;;;;;5019026;28;20232;-64
2021/06/02 07:11:48;;;;;;;;;;;21.60;56.50;;;;;;5017206;28;19925;-65
2021/06/02 07:14:18;;;;;;;;;;;21.60;56.50;;;;;;5023550;28;19928;-64
2021/06/02 07:16:43;;;;;;;;;;;21.60;56.50;;;;;;5013552;28;19917;-64
2021/06/02 07:19:08;;;;;;;;;;;21.60;56.40;;;;;;5011033;28;19928;-65
2021/06/02 07:21:35;;;;;;;;;;;21.60;56.40;;;;;;5021890;28;19913;-64
2021/06/02 07:24:00;;;;;;;;;;;21.60;56.40;;;;;;5027280;28;20672;-66
2021/06/02 07:26:25;;;;;;;;;;;21.60;56.40;;;;;;5013246;28;19924;-64
2021/06/02 07:28:51;;;;;;;;;;;21.60;56.30;;;;;;5013950;28;20456;-64
2021/06/02 07:31:16;;;;;;;;;;;21.60;56.30;;;;;;5009257;28;19945;-65
2021/06/02 07:33:44;;;;;;;;;;;21.60;56.30;;;;;;5013646;28;20311;-66
2021/06/02 07:36:10;;;;;;;;;;;21.60;56.30;;;;;;5010969;28;19927;-64
2021/06/02 07:38:35;;;;;;;;;;;21.60;56.30;;;;;;5009377;28;19929;-64
2021/06/02 07:41:01;;;;;;;;;;;21.60;56.30;;;;;;5017386;28;19936;-65
2021/06/02 07:43:26;;;;;;;;;;;21.60;56.20;;;;;;5015059;28;20213;-65
2021/06/02 07:45:52;;;;;;;;;;;21.60;56.10;;;;;;5006807;28;20384;-65
2021/06/02 07:48:17;;;;;;;;;;;21.60;56.00;;;;;;5015165;28;19917;-65
2021/06/02 07:50:43;;;;;;;;;;;21.60;55.90;;;;;;5013531;28;19951;-65
2021/06/02 07:53:08;;;;;;;;;;;21.60;55.70;;;;;;5017834;28;19913;-65
2021/06/02 07:55:33;;;;;;;;;;;21.60;55.70;;;;;;5007465;28;20368;-66
2021/06/02 07:57:59;;;;;;;;;;;21.60;55.50;;;;;;5020472;28;19928;-65
2021/06/02 08:00:24;;;;;;;;;;;21.60;55.50;;;;;;5010806;28;20403;-65
2021/06/02 08:02:50;;;;;;;;;;;21.60;55.50;;;;;;5010762;28;19925;-65
2021/06/02 08:05:16;;;;;;;;;;;21.60;55.30;;;;;;5011490;28;19917;-65
2021/06/02 08:07:42;;;;;;;;;;;21.60;55.20;;;;;;5020633;28;19919;-64
2021/06/02 08:10:07;;;;;;;;;;;21.60;55.10;;;;;;4998678;28;19964;-65
2021/06/02 08:12:33;;;;;;;;;;;21.60;55.10;;;;;;5008230;28;19995;-65
2021/06/02 08:14:58;;;;;;;;;;;21.60;55.00;;;;;;5013747;28;19940;-65
2021/06/02 08:17:24;;;;;;;;;;;21.60;54.90;;;;;;5010950;28;19995;-65
2021/06/02 08:19:49;;;;;;;;;;;21.60;54.90;;;;;;5002637;28;19914;-65
2021/06/02 08:22:14;;;;;;;;;;;21.60;54.90;;;;;;5009691;28;20459;-65
2021/06/02 08:24:40;;;;;;;;;;;21.60;54.80;;;;;;5011889;28;20067;-65
2021/06/02 08:27:09;;;;;;;;;;;21.60;54.90;;;;;;5006595;28;19924;-65
2021/06/02 08:29:34;;;;;;;;;;;21.60;54.80;;;;;;5014108;28;20306;-64
2021/06/02 08:32:00;;;;;;;;;;;21.60;54.80;;;;;;5021036;28;19917;-64
2021/06/02 08:34:25;;;;;;;;;;;21.60;54.90;;;;;;5013957;28;19979;-65
2021/06/02 08:36:51;;;;;;;;;;;21.60;54.90;;;;;;5011107;28;19921;-65
2021/06/02 08:39:17;;;;;;;;;;;21.60;54.80;;;;;;5011519;28;19925;-65
2021/06/02 08:41:42;;;;;;;;;;;21.60;54.80;;;;;;5015262;28;19917;-65
2021/06/02 08:44:08;;;;;;;;;;;21.60;54.90;;;;;;5016121;28;20007;-65
2021/06/02 08:46:34;;;;;;;;;;;21.60;54.80;;;;;;5010609;28;19917;-65
2021/06/02 08:49:00;;;;;;;;;;;21.60;54.80;;;;;;5015904;28;19924;-65
2021/06/02 08:51:25;;;;;;;;;;;21.60;54.80;;;;;;5016128;28;19913;-64
2021/06/02 08:53:51;;;;;;;;;;;21.60;55.00;;;;;;5017765;28;19940;-65
2021/06/02 08:56:16;;;;;;;;;;;21.60;55.00;;;;;;5011618;28;20398;-65
2021/06/02 08:58:42;;;;;;;;;;;21.60;54.80;;;;;;5009677;28;19917;-65
2021/06/02 09:01:07;;;;;;;;;;;21.60;54.80;;;;;;5009942;28;19917;-66
2021/06/02 09:03:33;;;;;;;;;;;21.60;54.80;;;;;;5002241;28;19921;-65
2021/06/02 09:05:59;;;;;;;;;;;21.60;54.80;;;;;;5010092;28;19924;-66
2021/06/02 09:08:26;;;;;;;;;;;21.60;54.80;;;;;;5015820;28;19913;-66
2021/06/02 09:10:52;;;;;;;;;;;21.60;54.80;;;;;;5014020;28;19921;-66
2021/06/02 09:13:19;;;;;;;;;;;21.60;54.80;;;;;;5023031;28;19917;-66
2021/06/02 09:15:45;;;;;;;;;;;21.60;54.70;;;;;;5030468;28;19960;-67
2021/06/02 09:18:14;;;;;;;;;;;21.60;54.70;;;;;;5022025;28;19933;-66
2021/06/02 09:20:41;;;;;;;;;;;21.60;54.70;;;;;;5026930;28;19968;-66
2021/06/02 09:23:26;;;;;;;;;;;21.60;54.70;;;;;;5033301;28;19917;-66
2021/06/02 09:25:52;;;;;;;;;;;21.60;54.70;;;;;;5033706;28;19924;-66
2021/06/02 09:28:17;;;;;;;;;;;21.60;54.60;;;;;;5033170;28;19925;-66
2021/06/02 09:30:43;;;;;;;;;;;21.60;54.60;;;;;;5018148;28;19921;-65
2021/06/02 09:33:09;;;;;;;;;;;21.60;54.60;;;;;;5014628;28;19902;-66
2021/06/02 09:35:34;;;;;;;;;;;21.60;54.60;;;;;;5025110;28;20085;-67
2021/06/02 09:38:00;;;;;;;;;;;21.60;54.70;;;;;;5016960;28;20407;-67
2021/06/02 09:40:26;;;;;;;;;;;21.60;54.80;;;;;;5014833;28;19920;-66
2021/06/02 09:42:51;;;;;;;;;;;21.60;54.80;;;;;;5013862;28;19918;-66
2021/06/02 09:45:17;;;;;;;;;;;21.60;54.80;;;;;;5014180;28;19940;-66
2021/06/02 09:47:45;;;;;;;;;;;21.60;54.70;;;;;;5027550;28;19917;-66
2021/06/02 09:50:11;;;;;;;;;;;21.60;54.70;;;;;;5017371;28;19928;-67
2021/06/02 09:52:50;;;;;;;;;;;21.60;54.80;;;;;;5027481;28;19917;-66
2021/06/02 09:55:15;;;;;;;;;;;21.60;54.80;;;;;;5029235;28;19921;-66
2021/06/02 09:57:41;;;;;;;;;;;21.60;54.80;;;;;;5022927;28;20023;-66
2021/06/02 10:00:08;;;;;;;;;;;21.60;54.90;;;;;;5011717;28;19921;-66
2021/06/02 10:02:33;;;;;;;;;;;21.60;54.90;;;;;;5017225;28;19918;-66
2021/06/02 10:05:05;;;;;;;;;;;21.60;54.90;;;;;;5013428;28;19924;-66
2021/06/02 10:07:31;;;;;;;;;;;21.60;54.80;;;;;;5017611;28;19917;-66
2021/06/02 10:10:12;;;;;;;;;;;21.60;54.80;;;;;;5015465;28;19924;-66
2021/06/02 10:12:38;;;;;;;;;;;21.60;54.80;;;;;;5027085;28;20383;-66
2021/06/02 10:15:05;;;;;;;;;;;21.60;54.80;;;;;;5022323;28;19924;-65
2021/06/02 10:17:32;;;;;;;;;;;21.60;54.80;;;;;;5023380;28;19917;-66
2021/06/02 10:19:57;;;;;;;;;;;21.60;54.80;;;;;;5019116;28;19925;-66
2021/06/02 10:22:24;;;;;;;;;;;21.70;55.50;;;;;;5020675;28;19917;-66
2021/06/02 10:24:50;;;;;;;;;;;21.60;54.80;;;;;;5007588;28;19929;-66
2021/06/02 10:27:17;;;;;;;;;;;21.60;54.80;;;;;;5012162;28;20400;-66
2021/06/02 10:29:42;;;;;;;;;;;21.60;54.80;;;;;;5010580;28;19925;-66
2021/06/02 10:32:08;;;;;;;;;;;21.60;54.80;;;;;;5017705;28;20338;-66
2021/06/02 10:34:33;;;;;;;;;;;21.70;54.90;;;;;;5017480;28;19918;-66
2021/06/02 10:36:59;;;;;;;;;;;21.70;54.80;;;;;;5030305;28;19913;-66
2021/06/02 10:39:24;;;;;;;;;;;21.70;54.80;;;;;;5022510;28;19921;-67
2021/06/02 10:41:50;;;;;;;;;;;21.70;54.80;;;;;;5030306;28;19928;-66
2021/06/02 10:44:17;;;;;;;;;;;21.70;54.90;;;;;;5028806;28;19913;-66
2021/06/02 10:46:42;;;;;;;;;;;21.70;54.90;;;;;;5019120;28;19917;-67
2021/06/02 10:49:08;;;;;;;;;;;21.70;54.90;;;;;;5019344;28;19929;-67
2021/06/02 10:51:35;;;;;;;;;;;21.70;54.90;;;;;;5044867;28;19927;-66
2021/06/02 10:54:18;;;;;;;;;;;21.70;54.90;;;;;;5018622;28;20007;-66
2021/06/02 10:56:56;;;;;;;;;;;21.70;55.00;;;;;;5022901;28;19918;-66
2021/06/02 10:59:37;;;;;;;;;;;21.70;55.00;;;;;;5015919;28;20001;-67
2021/06/02 11:02:07;;;;;;;;;;;21.70;55.00;;;;;;5031549;28;19919;-67
2021/06/02 11:04:33;;;;;;;;;;;21.70;55.00;;;;;;5019663;28;19925;-67
2021/06/02 11:07:17;;;;;;;;;;;21.70;55.60;;;;;;5019781;28;20735;-67
2021/06/02 11:10:02;;;;;;;;;;;21.70;55.00;;;;;;5015335;28;19921;-67
2021/06/02 11:12:49;;;;;;;;;;;21.70;55.10;;;;;;5019345;28;19924;-66
2021/06/02 11:15:21;;;;;;;;;;;21.70;55.10;;;;;;5012759;28;19996;-66
2021/06/02 11:18:06;;;;;;;;;;;21.80;55.20;;;;;;5018142;28;19918;-66
2021/06/02 11:20:40;;;;;;;;;;;21.80;55.20;;;;;;5020046;28;19952;-66
2021/06/02 11:23:06;;;;;;;;;;;21.80;55.20;;;;;;5007774;28;19928;-66
2021/06/02 11:25:32;;;;;;;;;;;21.80;55.20;;;;;;5015850;28;19921;-66
2021/06/02 11:27:57;;;;;;;;;;;21.70;55.20;;;;;;5017220;28;19922;-66
2021/06/02 11:30:23;;;;;;;;;;;21.80;55.40;;;;;;5028509;28;20525;-66
2021/06/02 11:32:49;;;;;;;;;;;21.80;55.40;;;;;;5007110;28;19920;-66
2021/06/02 11:35:14;;;;;;;;;;;21.80;55.30;;;;;;5040030;22;19924;-58
2021/06/02 11:37:41;;;;;;;;;;;21.80;55.30;;;;;;5039560;28;19925;-59
2021/06/02 11:40:07;;;;;;;;;;;21.80;55.30;;;;;;5041603;28;20727;-59
2021/06/02 11:42:38;;;;;;;;;;;21.80;55.40;;;;;;5029348;28;20036;-59
2021/06/02 11:45:10;;;;;;;;;;;21.80;55.60;;;;;;5017582;28;19921;-59
2021/06/02 11:47:36;;;;;;;;;;;21.80;55.50;;;;;;5020504;28;20008;-59
2021/06/02 11:50:08;;;;;;;;;;;21.80;55.40;;;;;;5020031;28;19992;-59
2021/06/02 11:52:34;;;;;;;;;;;21.80;55.40;;;;;;5020313;28;19913;-58
2021/06/02 11:55:00;;;;;;;;;;;21.80;55.40;;;;;;5017682;28;19917;-57
2021/06/02 11:57:36;;;;;;;;;;;21.90;55.60;;;;;;5016838;28;20000;-59
2021/06/02 12:00:04;;;;;;;;;;;21.80;55.70;;;;;;5017190;28;19924;-58
2021/06/02 12:02:29;;;;;;;;;;;21.80;55.60;;;;;;5018887;28;20004;-58
2021/06/02 12:05:14;;;;;;;;;;;21.80;55.60;;;;;;5018458;28;19913;-58
2021/06/02 12:07:42;;;;;;;;;;;21.80;55.70;;;;;;5018472;28;19917;-58
2021/06/02 12:10:08;;;;;;;;;;;21.90;55.70;;;;;;5019012;28;20340;-59
2021/06/02 12:12:37;;;;;;;;;;;21.80;55.70;;;;;;5019389;28;19917;-59
2021/06/02 12:15:03;;;;;;;;;;;21.90;55.70;;;;;;5017692;28;20309;-60
2021/06/02 12:17:29;;;;;;;;;;;21.90;55.70;;;;;;5018295;28;19921;-58
2021/06/02 12:19:55;;;;;;;;;;;21.90;55.80;;;;;;5018027;28;19914;-60
2021/06/02 12:22:20;;;;;;;;;;;21.90;55.90;;;;;;5017692;28;19917;-61
2021/06/02 12:25:04;;;;;;;;;;;21.90;55.90;;;;;;5019135;28;20340;-59
2021/06/02 12:27:37;;;;;;;;;;;21.90;56.00;;;;;;5018919;28;19914;-58
2021/06/02 12:30:06;;;;;;;;;;;21.90;56.00;;;;;;5017114;28;20008;-59
2021/06/02 12:32:42;;;;;;;;;;;21.90;56.00;;;;;;5019524;28;19917;-59
2021/06/02 12:35:24;;;;;;;;;;;21.90;56.00;;;;;;5019155;28;19931;-59
2021/06/02 12:37:56;;;;;;;;;;;21.90;56.00;;;;;;5008048;28;19928;-58
2021/06/02 12:40:22;;;;;;;;;;;21.90;56.20;;;;;;5018556;28;19936;-58
2021/06/02 12:42:48;;;;;;;;;;;21.90;56.20;;;;;;5018597;28;20366;-60
2021/06/02 12:45:20;;;;;;;;;;;21.90;56.10;;;;;;5018006;28;19924;-58
2021/06/02 12:47:45;;;;;;;;;;;21.90;56.10;;;;;;5018106;28;20454;-57
2021/06/02 12:50:11;;;;;;;;;;;22.00;56.20;;;;;;5023172;28;19999;-57
2021/06/02 12:52:36;;;;;;;;;;;21.90;56.20;;;;;;5021987;28;19924;-59
2021/06/02 12:55:08;;;;;;;;;;;21.90;56.20;;;;;;5022816;28;19917;-57
2021/06/02 12:57:33;;;;;;;;;;;22.00;56.40;;;;;;5023593;28;19917;-59
2021/06/02 12:59:59;;;;;;;;;;;21.90;56.30;;;;;;5021569;28;19923;-58
2021/06/02 13:02:24;;;;;;;;;;;22.00;56.40;;;;;;5023676;28;19921;-59
2021/06/02 13:04:50;;;;;;;;;;;22.00;56.40;;;;;;5023310;28;20485;-58
2021/06/02 13:07:32;;;;;;;;;;;22.00;56.40;;;;;;5023796;28;20006;-59
2021/06/02 13:09:58;;;;;;;;;;;22.00;56.40;;;;;;5022816;28;20124;-59
2021/06/02 13:12:26;;;;;;;;;;;22.00;56.50;;;;;;5021628;28;19932;-59
2021/06/02 13:14:51;;;;;;;;;;;22.00;56.40;;;;;;5021823;28;19917;-57
2021/06/02 13:17:17;;;;;;;;;;;22.00;56.40;;;;;;5023038;28;19913;-58
2021/06/02 13:19:44;;;;;;;;;;;22.00;56.60;;;;;;5024517;28;19923;-59
2021/06/02 13:22:19;;;;;;;;;;;22.00;56.40;;;;;;5027056;28;19921;-59
2021/06/02 13:24:44;;;;;;;;;;;22.00;56.40;;;;;;5026838;28;19917;-59
2021/06/02 13:27:14;;;;;;;;;;;22.00;56.50;;;;;;5026726;28;19932;-57
2021/06/02 13:29:39;;;;;;;;;;;22.10;56.60;;;;;;5025155;28;19917;-59
2021/06/02 13:32:13;;;;;;;;;;;22.00;56.50;;;;;;5026643;28;19920;-59
2021/06/02 13:34:38;;;;;;;;;;;22.00;56.50;;;;;;5026660;28;20620;-57
2021/06/02 13:37:10;;;;;;;;;;;22.10;56.50;;;;;;5026120;28;19924;-59
2021/06/02 13:39:36;;;;;;;;;;;22.10;56.60;;;;;;5026786;28;19988;-59
2021/06/02 13:42:01;;;;;;;;;;;22.10;56.70;;;;;;5026433;28;19913;-58
2021/06/02 13:44:26;;;;;;;;;;;22.00;56.50;;;;;;5025946;28;19920;-57
2021/06/02 13:46:52;;;;;;;;;;;22.00;56.70;;;;;;5025608;28;19913;-59
2021/06/02 13:49:17;;;;;;;;;;;22.10;56.50;;;;;;5025605;28;19917;-59
2021/06/02 13:51:43;;;;;;;;;;;22.10;56.40;;;;;;5024619;28;19924;-59
2021/06/02 13:54:19;;;;;;;;;;;22.10;56.20;;;;;;5024262;28;20382;-58
2021/06/02 13:56:44;;;;;;;;;;;22.10;56.40;;;;;;5024364;28;20422;-58
2021/06/02 13:59:10;;;;;;;;;;;22.10;56.40;;;;;;5025121;28;19924;-59
2021/06/02 14:01:36;;;;;;;;;;;22.10;56.10;;;;;;5024592;28;19914;-59
2021/06/02 14:04:02;;;;;;;;;;;22.10;56.10;;;;;;5025088;28;19917;-59
2021/06/02 14:06:27;;;;;;;;;;;22.10;56.10;;;;;;5023526;28;19917;-57
2021/06/02 14:08:52;;;;;;;;;;;22.10;55.90;;;;;;5025974;28;19956;-59
2021/06/02 14:11:21;;;;;;;;;;;22.10;55.80;;;;;;5024485;28;19913;-57
2021/06/02 14:13:47;;;;;;;;;;;22.10;55.90;;;;;;5024188;28;19917;-59
2021/06/02 14:16:13;;;;;;;;;;;22.10;56.00;;;;;;5023288;28;19921;-57
2021/06/02 14:18:38;;;;;;;;;;;22.10;55.80;;;;;;5022985;28;20279;-58
2021/06/02 14:21:04;;;;;;;;;;;22.10;55.80;;;;;;5024252;28;19917;-57
2021/06/02 14:23:29;;;;;;;;;;;22.10;55.90;;;;;;5024971;28;19940;-60
2021/06/02 14:25:54;;;;;;;;;;;22.10;55.70;;;;;;5024099;28;19913;-59
2021/06/02 14:28:20;;;;;;;;;;;22.20;55.70;;;;;;5024969;28;19913;-60
2021/06/02 14:30:45;;;;;;;;;;;22.20;55.80;;;;;;5024686;28;20390;-59
2021/06/02 14:33:11;;;;;;;;;;;22.20;55.90;;;;;;5024995;28;19913;-58
2021/06/02 14:35:36;;;;;;;;;;;22.10;55.90;;;;;;5024542;28;19966;-59